createdAt,value
2022-12-26T00:00:43.975Z,2.77
2022-12-26T00:02:48.235Z,2.77
2022-12-26T00:04:53.794Z,2.75
2022-12-26T00:06:59.029Z,2.77
2022-12-26T00:09:07.620Z,2.77
2022-12-26T00:11:12.792Z,2.77
2022-12-26T00:13:39.789Z,2.81
2022-12-26T00:15:42.315Z,2.78
2022-12-26T00:17:45.831Z,2.77
2022-12-26T00:19:49.571Z,2.76
2022-12-26T00:21:53.174Z,2.76
2022-12-26T00:23:59.001Z,2.76
2022-12-26T00:26:05.832Z,2.75
2022-12-26T00:28:09.828Z,2.73
2022-12-26T00:30:14.377Z,2.71
2022-12-26T00:32:18.050Z,2.73
2022-12-26T00:34:21.789Z,2.71
2022-12-26T00:36:28.423Z,2.73
2022-12-26T00:38:32.200Z,2.70
2022-12-26T00:40:35.970Z,2.69
2022-12-26T00:42:41.032Z,2.70
2022-12-26T00:44:44.578Z,2.68
2022-12-26T00:46:48.945Z,2.65
2022-12-26T00:48:53.076Z,2.64
2022-12-26T00:50:57.198Z,2.64
2022-12-26T00:53:00.902Z,2.65
2022-12-26T00:55:04.678Z,2.65
2022-12-26T00:57:08.331Z,2.63
2022-12-26T00:59:13.561Z,2.63
2022-12-26T01:01:19.958Z,2.65
2022-12-26T01:03:24.345Z,2.65
2022-12-26T01:05:28.158Z,2.64
2022-12-26T01:07:34.637Z,2.65
2022-12-26T01:09:58.131Z,2.70
2022-12-26T01:12:01.966Z,2.73
2022-12-26T01:14:05.798Z,2.75
2022-12-26T01:16:11.466Z,2.78
2022-12-26T01:18:15.107Z,2.81
2022-12-26T01:20:18.908Z,2.84
2022-12-26T01:22:23.134Z,2.86
2022-12-26T01:24:26.784Z,2.90
2022-12-26T01:26:30.483Z,2.92
2022-12-26T01:28:34.189Z,2.95
2022-12-26T01:30:38.643Z,2.95
2022-12-26T01:32:43.761Z,2.97
2022-12-26T01:34:48.007Z,2.98
2022-12-26T01:36:53.151Z,2.99
2022-12-26T01:38:56.727Z,3.00
2022-12-26T01:41:20.524Z,3.03
2022-12-26T01:43:24.536Z,3.03
2022-12-26T01:45:30.765Z,3.05
2022-12-26T01:47:48.813Z,3.05
2022-12-26T01:49:54.902Z,3.05
2022-12-26T01:52:01.206Z,3.08
2022-12-26T01:54:40.280Z,3.12
2022-12-26T01:56:36.548Z,3.13
2022-12-26T01:58:45.211Z,3.14
2022-12-26T02:00:50.210Z,3.17
2022-12-26T02:03:13.560Z,3.19
2022-12-26T02:05:37.712Z,3.20
2022-12-26T02:07:43.802Z,3.22
2022-12-26T02:09:47.558Z,3.24
2022-12-26T02:12:34.891Z,3.24
2022-12-26T02:14:22.206Z,3.25
2022-12-26T02:16:26.217Z,3.25
2022-12-26T02:18:31.259Z,3.26
2022-12-26T02:20:44.380Z,3.25
2022-12-26T02:23:31.894Z,3.28
2022-12-26T02:26:04.132Z,3.29
2022-12-26T02:28:40.296Z,3.31
2022-12-26T02:30:50.259Z,3.30
2022-12-26T02:33:08.684Z,3.30
2022-12-26T02:35:20.369Z,3.32
2022-12-26T02:37:43.176Z,3.32
2022-12-26T02:40:02.918Z,3.29
2022-12-26T02:42:18.447Z,3.29
2022-12-26T02:44:43.578Z,3.28
2022-12-26T02:47:04.484Z,3.24
2022-12-26T02:49:16.676Z,3.19
2022-12-26T02:51:47.379Z,3.17
2022-12-26T02:54:19.281Z,3.13
2022-12-26T02:56:47.992Z,3.11
2022-12-26T02:59:17.843Z,3.09
2022-12-26T03:01:43.874Z,3.05
2022-12-26T03:04:10.544Z,3.04
2022-12-26T03:06:34.387Z,3.02
2022-12-26T03:09:01.577Z,2.98
2022-12-26T03:11:22.987Z,2.95
2022-12-26T03:13:33.303Z,2.95
2022-12-26T03:15:55.382Z,2.97
2022-12-26T03:18:05.069Z,2.95
2022-12-26T03:20:15.392Z,2.95
2022-12-26T03:22:31.680Z,2.95
2022-12-26T03:25:02.416Z,2.96
2022-12-26T03:27:04.681Z,2.96
2022-12-26T03:29:27.537Z,2.93
2022-12-26T03:31:30.882Z,2.89
2022-12-26T03:33:56.247Z,2.89
2022-12-26T03:36:02.726Z,2.88
2022-12-26T03:38:10.325Z,2.88
2022-12-26T03:40:43.162Z,2.88
2022-12-26T03:43:14.660Z,2.88
2022-12-26T03:45:44.334Z,2.87
2022-12-26T03:48:15.468Z,2.87
2022-12-26T03:50:49.728Z,2.84
2022-12-26T03:53:21.788Z,2.80
2022-12-26T03:55:47.002Z,2.78
2022-12-26T03:58:12.515Z,2.75
2022-12-26T04:00:34.241Z,2.70
2022-12-26T04:02:57.278Z,2.67
2022-12-26T04:05:23.211Z,2.67
2022-12-26T04:07:56.221Z,2.63
2022-12-26T04:10:24.269Z,2.61
2022-12-26T04:12:48.445Z,2.59
2022-12-26T04:15:13.571Z,2.56
2022-12-26T04:17:44.727Z,2.55
2022-12-26T04:20:00.501Z,2.55
2022-12-26T04:22:31.983Z,2.56
2022-12-26T04:24:58.427Z,2.51
2022-12-26T04:27:23.590Z,2.51
2022-12-26T04:29:44.275Z,2.50
2022-12-26T04:32:12.431Z,2.47
2022-12-26T04:34:39.097Z,2.49
2022-12-26T04:37:04.215Z,2.50
2022-12-26T04:39:29.799Z,2.49
2022-12-26T04:41:53.005Z,2.49
2022-12-26T04:44:09.943Z,2.50
2022-12-26T04:46:14.685Z,2.51
2022-12-26T04:48:35.716Z,2.50
2022-12-26T04:50:49.398Z,2.50
2022-12-26T04:53:01.414Z,2.45
2022-12-26T04:55:05.119Z,2.41
2022-12-26T04:57:08.796Z,2.42
2022-12-26T04:59:13.521Z,2.42
2022-12-26T05:01:34.645Z,2.40
2022-12-26T05:03:55.225Z,2.39
2022-12-26T05:06:14.994Z,2.36
2022-12-26T05:08:43.234Z,2.34
2022-12-26T05:10:46.599Z,2.35
2022-12-26T05:12:50.237Z,2.35
2022-12-26T05:14:54.941Z,2.34
2022-12-26T05:17:15.989Z,2.36
2022-12-26T05:19:37.023Z,2.40
2022-12-26T05:21:57.815Z,2.43
2022-12-26T05:24:18.901Z,2.49
2022-12-26T05:26:41.520Z,2.53
2022-12-26T05:28:45.799Z,2.57
2022-12-26T05:30:50.745Z,2.59
2022-12-26T05:33:11.562Z,2.63
2022-12-26T05:35:15.122Z,2.67
2022-12-26T05:37:18.371Z,2.68
2022-12-26T05:39:21.632Z,2.68
2022-12-26T05:41:25.329Z,2.68
2022-12-26T05:43:28.762Z,2.68
2022-12-26T05:45:32.199Z,2.66
2022-12-26T05:47:36.921Z,2.63
2022-12-26T05:49:40.181Z,2.60
2022-12-26T05:51:43.115Z,2.59
2022-12-26T05:53:46.577Z,2.57
2022-12-26T05:55:49.825Z,2.55
2022-12-26T05:57:53.313Z,2.56
2022-12-26T05:59:56.571Z,2.56
2022-12-26T06:02:00.074Z,2.56
2022-12-26T06:04:05.102Z,2.57
2022-12-26T06:06:08.606Z,2.59
2022-12-26T06:08:11.875Z,2.59
2022-12-26T06:10:15.417Z,2.59
2022-12-26T06:12:18.764Z,2.58
2022-12-26T06:14:22.086Z,2.57
2022-12-26T06:16:25.545Z,2.56
2022-12-26T06:18:28.810Z,2.55
2022-12-26T06:20:33.920Z,2.55
2022-12-26T06:22:37.184Z,2.54
2022-12-26T06:24:40.428Z,2.55
2022-12-26T06:26:43.961Z,2.56
2022-12-26T06:28:47.900Z,2.56
2022-12-26T06:30:51.771Z,2.57
2022-12-26T06:32:55.064Z,2.57
2022-12-26T06:34:58.320Z,2.56
2022-12-26T06:37:03.008Z,2.53
2022-12-26T06:39:06.230Z,2.51
2022-12-26T06:41:14.209Z,2.51
2022-12-26T06:43:17.492Z,2.49
2022-12-26T06:45:20.762Z,2.48
2022-12-26T06:47:25.087Z,2.46
2022-12-26T06:49:32.613Z,2.45
2022-12-26T06:51:36.750Z,2.44
2022-12-26T06:53:41.566Z,2.42
2022-12-26T06:55:44.825Z,2.42
2022-12-26T06:57:48.169Z,2.42
2022-12-26T06:59:51.511Z,2.39
2022-12-26T07:01:54.847Z,2.37
2022-12-26T07:03:58.738Z,2.37
2022-12-26T07:06:05.436Z,2.36
2022-12-26T07:08:08.745Z,2.33
2022-12-26T07:10:13.786Z,2.33
2022-12-26T07:12:20.890Z,2.30
2022-12-26T07:14:24.704Z,2.31
2022-12-26T07:16:29.584Z,2.30
2022-12-26T07:18:33.417Z,2.31
2022-12-26T07:20:36.684Z,2.29
2022-12-26T07:22:40.210Z,2.29
2022-12-26T07:24:43.484Z,2.27
2022-12-26T07:26:48.913Z,2.26
2022-12-26T07:28:55.141Z,2.27
2022-12-26T07:31:00.029Z,2.26
2022-12-26T07:33:03.404Z,2.27
2022-12-26T07:35:07.358Z,2.26
2022-12-26T07:37:11.098Z,2.25
2022-12-26T07:39:15.034Z,2.26
2022-12-26T07:41:35.981Z,2.26
2022-12-26T07:43:40.627Z,2.25
2022-12-26T07:45:45.987Z,2.24
2022-12-26T07:47:49.365Z,2.24
2022-12-26T07:49:52.668Z,2.23
2022-12-26T07:51:55.904Z,2.22
2022-12-26T07:53:59.147Z,2.23
2022-12-26T07:56:02.791Z,2.23
2022-12-26T07:58:06.077Z,2.22
2022-12-26T08:00:11.657Z,2.22
2022-12-26T08:02:18.044Z,2.21
2022-12-26T08:04:21.475Z,2.21
2022-12-26T08:06:24.874Z,2.23
2022-12-26T08:08:28.251Z,2.22
2022-12-26T08:10:31.518Z,2.23
2022-12-26T08:12:35.196Z,2.23
2022-12-26T08:14:38.953Z,2.22
2022-12-26T08:16:48.126Z,2.22
2022-12-26T08:18:54.734Z,2.21
2022-12-26T08:20:59.768Z,2.20
2022-12-26T08:23:03.074Z,2.20
2022-12-26T08:25:07.774Z,2.17
2022-12-26T08:27:12.363Z,2.17
2022-12-26T08:29:15.648Z,2.17
2022-12-26T08:31:21.029Z,2.16
2022-12-26T08:33:25.851Z,2.17
2022-12-26T08:35:30.309Z,2.17
2022-12-26T08:37:33.551Z,2.16
2022-12-26T08:39:36.806Z,2.17
2022-12-26T08:41:40.134Z,2.19
2022-12-26T08:44:24.847Z,2.20
2022-12-26T08:46:08.084Z,2.22
2022-12-26T08:48:12.572Z,2.22
2022-12-26T08:50:17.604Z,2.22
2022-12-26T08:52:20.998Z,2.22
2022-12-26T08:54:24.492Z,2.22
2022-12-26T08:56:28.888Z,2.23
2022-12-26T08:58:33.080Z,2.23
2022-12-26T09:00:36.360Z,2.25
2022-12-26T09:02:39.787Z,2.25
2022-12-26T09:04:43.444Z,2.27
2022-12-26T09:06:48.046Z,2.29
2022-12-26T09:08:51.615Z,2.30
2022-12-26T09:10:54.907Z,2.32
2022-12-26T09:12:58.361Z,2.33
2022-12-26T09:15:01.666Z,2.34
2022-12-26T09:17:05.487Z,2.36
2022-12-26T09:19:10.605Z,2.37
2022-12-26T09:21:15.322Z,2.36
2022-12-26T09:23:20.512Z,2.40
2022-12-26T09:25:25.552Z,2.42
2022-12-26T09:27:30.199Z,2.44
2022-12-26T09:29:33.564Z,2.46
2022-12-26T09:31:37.247Z,2.48
2022-12-26T09:33:41.333Z,2.49
2022-12-26T09:35:44.644Z,2.50
2022-12-26T09:37:48.016Z,2.51
2022-12-26T09:39:52.887Z,2.52
2022-12-26T09:42:04.563Z,2.56
2022-12-26T09:44:17.487Z,2.60
2022-12-26T09:46:30.329Z,2.64
2022-12-26T09:48:40.853Z,2.66
2022-12-26T09:50:44.465Z,2.68
2022-12-26T09:52:51.692Z,2.70
2022-12-26T09:55:01.832Z,2.70
2022-12-26T09:57:14.771Z,2.73
2022-12-26T09:59:20.666Z,2.74
2022-12-26T10:01:27.522Z,2.78
2022-12-26T10:03:35.193Z,2.80
2022-12-26T10:05:45.650Z,2.82
2022-12-26T10:07:55.296Z,2.85
2022-12-26T10:10:10.455Z,2.87
2022-12-26T10:12:44.465Z,2.87
2022-12-26T10:14:54.833Z,2.87
2022-12-26T10:17:04.463Z,2.89
2022-12-26T10:19:32.690Z,2.92
2022-12-26T10:21:45.458Z,2.96
2022-12-26T10:23:52.914Z,2.99
2022-12-26T10:26:04.515Z,3.02
2022-12-26T10:28:17.302Z,3.05
2022-12-26T10:30:24.944Z,3.09
2022-12-26T10:32:32.225Z,3.12
2022-12-26T10:34:41.036Z,3.18
2022-12-26T10:36:49.530Z,3.30
2022-12-26T10:38:55.367Z,3.39
2022-12-26T10:41:06.067Z,3.45
2022-12-26T10:43:23.704Z,3.47
2022-12-26T10:45:35.345Z,3.46
2022-12-26T10:47:41.228Z,3.47
2022-12-26T10:49:46.624Z,3.52
2022-12-26T10:51:50.863Z,3.54
2022-12-26T10:53:55.432Z,3.55
2022-12-26T10:56:03.408Z,3.58
2022-12-26T10:58:18.167Z,3.60
2022-12-26T11:00:24.038Z,3.62
2022-12-26T11:02:30.391Z,3.62
2022-12-26T11:05:11.142Z,3.62
2022-12-26T11:06:59.280Z,3.61
2022-12-26T11:09:03.825Z,3.62
2022-12-26T11:11:14.058Z,3.61
2022-12-26T11:13:23.592Z,3.57
2022-12-26T11:15:33.763Z,3.56
2022-12-26T11:17:44.177Z,3.54
2022-12-26T11:19:49.923Z,3.51
2022-12-26T11:21:53.890Z,3.46
2022-12-26T11:24:17.625Z,3.45
2022-12-26T11:26:25.604Z,3.46
2022-12-26T11:28:34.414Z,3.47
2022-12-26T11:30:41.303Z,3.46
2022-12-26T11:32:49.160Z,3.45
2022-12-26T11:34:56.587Z,3.46
2022-12-26T11:37:02.464Z,3.47
2022-12-26T11:39:10.316Z,3.49
2022-12-26T11:41:41.349Z,3.59
2022-12-26T11:43:47.938Z,3.71
2022-12-26T11:45:52.096Z,3.78
2022-12-26T11:47:58.488Z,3.81
2022-12-26T11:50:05.858Z,3.83
2022-12-26T11:52:45.337Z,3.89
2022-12-26T11:54:53.360Z,3.93
2022-12-26T11:57:12.344Z,3.93
2022-12-26T11:59:22.317Z,3.90
2022-12-26T12:01:26.651Z,3.91
2022-12-26T12:03:36.511Z,3.95
2022-12-26T12:05:50.731Z,3.93
2022-12-26T12:08:10.659Z,3.90
2022-12-26T12:10:55.973Z,3.87
2022-12-26T12:13:09.013Z,3.88
2022-12-26T12:15:24.283Z,3.87
2022-12-26T12:17:37.199Z,3.86
2022-12-26T12:19:50.635Z,3.86
2022-12-26T12:22:11.648Z,3.88
2022-12-26T12:24:35.574Z,3.89
2022-12-26T12:26:54.449Z,3.91
2022-12-26T12:29:21.754Z,3.92
2022-12-26T12:31:37.729Z,3.90
2022-12-26T12:33:50.317Z,3.92
2022-12-26T12:36:03.961Z,3.90
2022-12-26T12:38:17.695Z,3.90
2022-12-26T12:40:37.913Z,3.89
2022-12-26T12:42:52.439Z,3.88
2022-12-26T12:45:11.087Z,3.89
2022-12-26T12:47:23.868Z,3.88
2022-12-26T12:49:41.908Z,3.86
2022-12-26T12:52:03.837Z,3.86
2022-12-26T12:54:35.087Z,3.86
2022-12-26T12:56:47.466Z,3.86
2022-12-26T12:59:01.972Z,3.86
2022-12-26T13:01:18.983Z,3.84
2022-12-26T13:03:40.689Z,3.84
2022-12-26T13:05:53.746Z,3.82
2022-12-26T13:08:09.434Z,3.80
2022-12-26T13:10:24.494Z,3.78
2022-12-26T13:12:43.188Z,3.77
2022-12-26T13:14:54.260Z,3.77
2022-12-26T13:17:04.867Z,3.77
2022-12-26T13:19:20.000Z,3.79
2022-12-26T13:21:32.176Z,3.80
2022-12-26T13:23:59.443Z,3.82
2022-12-26T13:26:16.472Z,3.84
2022-12-26T13:28:31.544Z,3.85
2022-12-26T13:30:38.301Z,3.89
2022-12-26T13:32:46.702Z,3.90
2022-12-26T13:34:55.239Z,3.90
2022-12-26T13:37:01.090Z,3.92
2022-12-26T13:39:32.335Z,3.94
2022-12-26T13:41:54.933Z,3.96
2022-12-26T13:44:03.191Z,3.97
2022-12-26T13:46:27.470Z,3.99
2022-12-26T13:49:00.979Z,4.00
2022-12-26T13:51:08.081Z,4.02
2022-12-26T13:53:33.398Z,4.03
2022-12-26T13:55:57.331Z,4.05
2022-12-26T13:58:54.113Z,4.07
2022-12-26T14:01:51.133Z,4.06
2022-12-26T14:04:27.722Z,4.07
2022-12-26T14:07:08.259Z,4.06
2022-12-26T14:09:45.543Z,4.08
2022-12-26T14:12:54.956Z,4.08
2022-12-26T14:15:50.425Z,4.09
2022-12-26T14:18:11.432Z,4.07
2022-12-26T14:20:32.784Z,4.06
2022-12-26T14:22:56.093Z,4.07
2022-12-26T14:25:25.131Z,4.07
2022-12-26T14:27:41.699Z,4.07
2022-12-26T14:29:56.637Z,4.05
2022-12-26T14:32:15.183Z,4.04
2022-12-26T14:34:38.481Z,4.05
2022-12-26T14:37:05.703Z,4.05
2022-12-26T14:40:01.902Z,4.05
2022-12-26T14:42:46.945Z,4.04
2022-12-26T14:45:03.414Z,4.03
2022-12-26T14:47:54.712Z,4.02
2022-12-26T14:50:20.936Z,4.02
2022-12-26T14:52:51.537Z,3.99
2022-12-26T14:55:27.446Z,3.97
2022-12-26T14:58:35.790Z,3.98
2022-12-26T15:00:52.576Z,4.02
2022-12-26T15:03:42.668Z,4.07
2022-12-26T15:05:53.729Z,4.13
2022-12-26T15:08:55.520Z,4.17
2022-12-26T15:11:39.328Z,4.19
2022-12-26T15:14:32.166Z,4.18
2022-12-26T15:17:23.565Z,4.16
2022-12-26T15:20:14.150Z,4.14
2022-12-26T15:23:00.275Z,4.12
2022-12-26T15:26:02.324Z,4.11
2022-12-26T15:28:45.377Z,4.08
2022-12-26T15:31:33.545Z,4.03
2022-12-26T15:33:57.661Z,4.00
2022-12-26T15:36:23.575Z,3.97
2022-12-26T15:38:51.877Z,3.94
2022-12-26T15:41:49.368Z,3.91
2022-12-26T15:44:46.774Z,3.87
2022-12-26T15:47:24.934Z,3.83
2022-12-26T15:49:51.863Z,3.81
2022-12-26T15:52:14.033Z,3.77
2022-12-26T15:55:29.401Z,3.74
2022-12-26T15:58:29.827Z,3.72
2022-12-26T16:01:29.701Z,3.69
2022-12-26T16:04:13.081Z,3.64
2022-12-26T16:09:44.229Z,3.60
2022-12-26T16:12:03.573Z,3.60
2022-12-26T16:14:52.521Z,3.58
2022-12-26T16:17:13.841Z,3.56
2022-12-26T16:19:27.920Z,3.56
2022-12-26T16:22:04.064Z,3.55
2022-12-26T16:24:10.145Z,3.54
2022-12-26T16:26:23.420Z,3.53
2022-12-26T16:28:29.373Z,3.51
2022-12-26T16:30:39.153Z,3.51
2022-12-26T16:33:19.485Z,3.51
2022-12-26T16:36:00.924Z,3.51
2022-12-26T16:38:18.070Z,3.51
2022-12-26T16:40:27.158Z,3.52
2022-12-26T16:42:36.387Z,3.53
2022-12-26T16:44:45.507Z,3.52
2022-12-26T16:46:49.859Z,3.52
2022-12-26T16:49:02.925Z,3.51
2022-12-26T16:51:10.063Z,3.51
2022-12-26T16:56:54.295Z,3.51
2022-12-26T16:59:17.678Z,3.51
2022-12-26T17:01:24.179Z,3.52
2022-12-26T17:03:35.393Z,3.52
2022-12-26T17:05:42.848Z,3.52
2022-12-26T17:07:50.898Z,3.51
2022-12-26T17:09:57.490Z,3.50
2022-12-26T17:12:05.059Z,3.49
2022-12-26T17:14:19.001Z,3.48
2022-12-26T17:16:25.100Z,3.47
2022-12-26T17:18:41.817Z,3.46
2022-12-26T17:20:45.566Z,3.44
2022-12-26T17:22:51.428Z,3.43
2022-12-26T17:25:23.293Z,3.41
2022-12-26T17:27:28.435Z,3.41
2022-12-26T17:30:21.125Z,3.41
2022-12-26T17:32:33.510Z,3.42
2022-12-26T17:34:40.872Z,3.44
2022-12-26T17:37:17.650Z,3.45
2022-12-26T17:39:21.124Z,3.45
2022-12-26T17:41:24.749Z,3.47
2022-12-26T17:43:32.800Z,3.48
2022-12-26T17:45:40.117Z,3.51
2022-12-26T17:47:48.629Z,3.53
2022-12-26T17:49:55.080Z,3.56
2022-12-26T17:52:01.914Z,3.56
2022-12-26T17:54:06.628Z,3.57
2022-12-26T17:56:16.189Z,3.59
2022-12-26T17:58:21.513Z,3.58
2022-12-26T18:00:27.547Z,3.59
2022-12-26T18:02:31.239Z,3.63
2022-12-26T18:04:34.817Z,3.66
2022-12-26T18:06:40.825Z,3.68
2022-12-26T18:08:45.419Z,3.67
2022-12-26T18:10:49.179Z,3.68
2022-12-26T18:12:54.239Z,3.66
2022-12-26T18:15:01.964Z,3.63
2022-12-26T18:17:06.118Z,3.60
2022-12-26T18:19:14.522Z,3.59
2022-12-26T18:21:18.446Z,3.59
2022-12-26T18:23:23.210Z,3.60
2022-12-26T18:25:28.141Z,3.60
2022-12-26T18:27:34.138Z,3.58
2022-12-26T18:29:40.924Z,3.57
2022-12-26T18:31:44.617Z,3.55
2022-12-26T18:33:48.255Z,3.54
2022-12-26T18:35:52.365Z,3.52
2022-12-26T18:37:55.891Z,3.52
2022-12-26T18:39:59.655Z,3.48
2022-12-26T18:42:04.057Z,3.45
2022-12-26T18:44:07.652Z,3.45
2022-12-26T18:46:17.503Z,3.44
2022-12-26T18:48:21.295Z,3.44
2022-12-26T18:50:25.245Z,3.44
2022-12-26T18:52:29.059Z,3.43
2022-12-26T18:54:33.379Z,3.46
2022-12-26T18:56:37.332Z,3.46
2022-12-26T18:58:41.499Z,3.48
2022-12-26T19:00:45.620Z,3.50
2022-12-26T19:02:52.208Z,3.52
2022-12-26T19:04:56.195Z,3.54
2022-12-26T19:07:00.230Z,3.55
2022-12-26T19:09:04.522Z,3.54
2022-12-26T19:11:08.472Z,3.56
2022-12-26T19:13:12.840Z,3.55
2022-12-26T19:15:17.366Z,3.53
2022-12-26T19:17:21.489Z,3.51
2022-12-26T19:19:29.637Z,3.46
2022-12-26T19:21:34.013Z,3.43
2022-12-26T19:23:37.832Z,3.39
2022-12-26T19:25:42.314Z,3.36
2022-12-26T19:27:47.216Z,3.34
2022-12-26T19:29:51.326Z,3.30
2022-12-26T19:31:56.830Z,3.28
2022-12-26T19:34:00.801Z,3.26
2022-12-26T19:36:07.634Z,3.24
2022-12-26T19:38:14.299Z,3.23
2022-12-26T19:40:24.555Z,3.20
2022-12-26T19:42:30.223Z,3.17
2022-12-26T19:44:35.431Z,3.13
2022-12-26T19:46:39.741Z,3.11
2022-12-26T19:48:44.265Z,3.08
2022-12-26T19:50:48.848Z,3.06
2022-12-26T19:52:54.928Z,3.05
2022-12-26T19:55:00.351Z,3.04
2022-12-26T19:57:04.579Z,3.03
2022-12-26T19:59:08.792Z,3.02
2022-12-26T20:01:15.913Z,2.99
2022-12-26T20:03:20.306Z,2.98
2022-12-26T20:05:24.190Z,2.96
2022-12-26T20:07:28.617Z,2.94
2022-12-26T20:09:34.130Z,2.94
2022-12-26T20:11:40.725Z,2.91
2022-12-26T20:13:45.965Z,2.91
2022-12-26T20:15:51.416Z,2.90
2022-12-26T20:17:55.899Z,2.90
2022-12-26T20:20:00.747Z,2.90
2022-12-26T20:22:04.994Z,2.91
2022-12-26T20:24:09.690Z,2.88
2022-12-26T20:26:17.957Z,2.87
2022-12-26T20:28:22.106Z,2.86
2022-12-26T20:30:26.068Z,2.87
2022-12-26T20:32:30.077Z,2.85
2022-12-26T20:34:33.826Z,2.84
2022-12-26T20:36:38.790Z,2.82
2022-12-26T20:38:43.309Z,2.80
2022-12-26T20:40:50.015Z,2.79
2022-12-26T20:42:55.700Z,2.78
2022-12-26T20:44:59.384Z,2.77
2022-12-26T20:47:03.615Z,2.79
2022-12-26T20:49:07.488Z,2.77
2022-12-26T20:51:14.179Z,2.77
2022-12-26T20:53:18.268Z,2.77
2022-12-26T20:55:22.060Z,2.78
2022-12-26T20:57:25.598Z,2.76
2022-12-26T20:59:30.969Z,2.76
2022-12-26T21:01:37.956Z,2.75
2022-12-26T21:03:42.495Z,2.74
2022-12-26T21:05:46.116Z,2.71
2022-12-26T21:07:49.934Z,2.73
2022-12-26T21:09:53.727Z,2.70
2022-12-26T21:11:57.801Z,2.70
2022-12-26T21:14:04.808Z,2.70
2022-12-26T21:16:13.383Z,2.70
2022-12-26T21:18:17.642Z,2.70
2022-12-26T21:20:21.505Z,2.70
2022-12-26T21:22:25.200Z,2.69
2022-12-26T21:24:31.185Z,2.69
2022-12-26T21:26:38.042Z,2.67
2022-12-26T21:28:43.000Z,2.66
2022-12-26T21:30:46.980Z,2.66
2022-12-26T21:32:52.139Z,2.66
2022-12-26T21:34:56.162Z,2.65
2022-12-26T21:37:17.962Z,2.65
2022-12-26T21:39:21.764Z,2.67
2022-12-26T21:41:26.772Z,2.70
2022-12-26T21:43:31.884Z,2.71
2022-12-26T21:45:35.569Z,2.74
2022-12-26T21:47:39.454Z,2.76
2022-12-26T21:49:46.415Z,2.78
2022-12-26T21:51:50.491Z,2.77
2022-12-26T21:54:14.630Z,2.78
2022-12-26T21:56:18.616Z,2.80
2022-12-26T21:58:22.416Z,2.80
2022-12-26T22:00:25.345Z,2.81
2022-12-26T22:02:49.189Z,2.82
2022-12-26T22:04:54.699Z,2.83
2022-12-26T22:06:58.396Z,2.85
2022-12-26T22:09:02.683Z,2.84
2022-12-26T22:11:24.050Z,2.87
2022-12-26T22:13:28.355Z,2.87
2022-12-26T22:15:50.347Z,2.87
2022-12-26T22:17:54.554Z,2.88
2022-12-26T22:20:00.181Z,2.88
2022-12-26T22:22:04.223Z,2.89
2022-12-26T22:24:08.777Z,2.89
2022-12-26T22:26:14.397Z,2.88
2022-12-26T22:28:23.105Z,2.90
2022-12-26T22:30:27.671Z,2.91
2022-12-26T22:32:32.411Z,2.92
2022-12-26T22:34:36.496Z,2.92
2022-12-26T22:36:43.208Z,2.91
2022-12-26T22:38:46.919Z,2.92
2022-12-26T22:40:58.962Z,2.93
2022-12-26T22:43:05.471Z,2.94
2022-12-26T22:45:11.686Z,2.94
2022-12-26T22:47:15.956Z,2.96
2022-12-26T22:49:20.391Z,2.96
2022-12-26T22:51:26.190Z,2.96
2022-12-26T22:53:32.310Z,2.96
2022-12-26T22:55:36.381Z,2.97
2022-12-26T22:57:40.615Z,2.97
2022-12-26T23:02:08.845Z,2.98
2022-12-26T23:04:15.183Z,3.00
2022-12-26T23:06:24.702Z,2.99
2022-12-26T23:08:31.356Z,2.98
2022-12-26T23:10:36.077Z,2.98
2022-12-26T23:12:46.331Z,2.97
2022-12-26T23:14:50.341Z,2.97
2022-12-26T23:16:58.473Z,2.98
2022-12-26T23:19:23.930Z,2.99
2022-12-26T23:21:39.684Z,3.02
2022-12-26T23:23:45.809Z,3.03
2022-12-26T23:25:52.027Z,3.05
2022-12-26T23:28:13.241Z,3.05
2022-12-26T23:30:19.920Z,3.08
2022-12-26T23:32:24.327Z,3.08
2022-12-26T23:34:28.785Z,3.09
2022-12-26T23:36:32.491Z,3.09
2022-12-26T23:38:36.692Z,3.09
2022-12-26T23:40:41.918Z,3.10
2022-12-26T23:42:46.479Z,3.10
2022-12-26T23:44:50.998Z,3.10
2022-12-26T23:46:54.783Z,3.12
2022-12-26T23:48:59.563Z,3.13
2022-12-26T23:51:04.867Z,3.15
2022-12-26T23:53:10.267Z,3.14
2022-12-26T23:55:15.080Z,3.15
2022-12-26T23:57:21.558Z,3.15
2022-12-26T23:59:25.903Z,3.15
